createdAt,value
2018-02-21T00:00:15.652Z,52.75
2018-02-21T00:02:43.914Z,51.90
2018-02-21T00:05:11.383Z,50.35
2018-02-21T00:07:39.168Z,52.40
2018-02-21T00:10:06.659Z,46.95
2018-02-21T00:12:34.164Z,53.45
2018-02-21T00:15:02.056Z,49.47
2018-02-21T00:17:29.560Z,51.75
2018-02-21T00:19:57.066Z,49.58
2018-02-21T00:22:24.556Z,49.35
2018-02-21T00:24:52.030Z,49.28
2018-02-21T00:27:19.520Z,48.92
2018-02-21T00:29:47.008Z,48.65
2018-02-21T00:32:14.521Z,49.90
2018-02-21T00:34:41.991Z,51.10
2018-02-21T00:37:10.248Z,50.30
2018-02-21T00:39:37.738Z,53.22
2018-02-21T00:42:06.004Z,50.65
2018-02-21T00:44:34.592Z,48.22
2018-02-21T00:47:02.126Z,52.03
2018-02-21T00:49:29.610Z,50.38
2018-02-21T00:51:58.138Z,51.17
2018-02-21T00:54:25.615Z,48.15
2018-02-21T00:56:53.892Z,49.45
2018-02-21T00:59:21.795Z,50.15
2018-02-21T01:01:50.049Z,50.72
2018-02-21T01:04:18.308Z,47.62
2018-02-21T01:06:46.076Z,52.25
2018-02-21T01:09:13.564Z,49.95
2018-02-21T01:11:41.844Z,51.92
2018-02-21T01:14:10.442Z,50.63
2018-02-21T01:16:37.962Z,50.00
2018-02-21T01:19:05.517Z,49.92
2018-02-21T01:21:33.927Z,49.45
2018-02-21T01:24:01.428Z,48.08
2018-02-21T01:26:29.680Z,50.50
2018-02-21T01:28:57.308Z,49.88
2018-02-21T01:31:25.598Z,51.10
2018-02-21T01:33:53.077Z,51.40
2018-02-21T01:36:20.901Z,48.33
2018-02-21T01:38:49.140Z,49.67
2018-02-21T01:41:16.685Z,47.42
2018-02-21T01:43:44.511Z,47.55
2018-02-21T01:46:12.780Z,50.60
2018-02-21T01:48:41.054Z,49.92
2018-02-21T01:51:09.644Z,50.20
2018-02-21T01:53:37.932Z,47.05
2018-02-21T01:56:05.553Z,48.17
2018-02-21T01:58:33.052Z,52.00
2018-02-21T02:01:01.298Z,48.60
2018-02-21T02:03:28.794Z,47.75
2018-02-21T02:05:56.306Z,49.30
2018-02-21T02:08:23.796Z,46.20
2018-02-21T02:10:52.141Z,46.22
2018-02-21T02:13:20.055Z,48.97
2018-02-21T02:15:47.587Z,47.53
2018-02-21T02:18:15.876Z,47.35
2018-02-21T02:20:43.387Z,47.92
2018-02-21T02:23:10.856Z,40.97
2018-02-21T02:25:38.357Z,46.00
2018-02-21T02:28:05.883Z,46.33
2018-02-21T02:30:33.387Z,44.38
2018-02-21T02:33:00.908Z,44.63
2018-02-21T02:35:29.432Z,45.92
2018-02-21T02:37:57.032Z,46.28
2018-02-21T02:40:24.476Z,45.30
2018-02-21T02:42:52.414Z,45.85
2018-02-21T02:45:19.945Z,46.37
2018-02-21T02:47:48.220Z,46.37
2018-02-21T02:50:15.988Z,46.53
2018-02-21T02:52:43.531Z,48.35
2018-02-21T02:55:11.832Z,49.03
2018-02-21T02:57:39.592Z,46.08
2018-02-21T03:00:07.486Z,46.75
2018-02-21T03:02:34.995Z,44.15
2018-02-21T03:05:03.720Z,47.53
2018-02-21T03:07:31.334Z,43.90
2018-02-21T03:09:58.804Z,48.22
2018-02-21T03:12:27.096Z,45.70
2018-02-21T03:14:55.411Z,47.45
2018-02-21T03:17:22.957Z,44.80
2018-02-21T03:19:51.508Z,46.83
2018-02-21T03:22:19.012Z,47.60
2018-02-21T03:24:46.493Z,45.58
2018-02-21T03:27:14.772Z,48.65
2018-02-21T03:29:43.767Z,46.17
2018-02-21T03:32:12.011Z,46.10
2018-02-21T03:34:39.897Z,48.08
2018-02-21T03:37:07.382Z,47.03
2018-02-21T03:39:35.643Z,47.58
2018-02-21T03:42:03.139Z,49.03
2018-02-21T03:44:30.695Z,46.08
2018-02-21T03:46:58.175Z,43.17
2018-02-21T03:49:26.084Z,45.88
2018-02-21T03:51:54.340Z,47.62
2018-02-21T03:54:21.856Z,45.97
2018-02-21T03:56:49.423Z,48.28
2018-02-21T03:59:17.014Z,45.90
2018-02-21T04:01:44.646Z,49.83
2018-02-21T04:04:12.566Z,48.35
2018-02-21T04:06:40.105Z,46.25
2018-02-21T04:09:07.674Z,46.53
2018-02-21T04:11:35.455Z,46.67
2018-02-21T04:14:03.707Z,48.10
2018-02-21T04:16:31.230Z,46.05
2018-02-21T04:19:00.913Z,46.75
2018-02-21T04:21:28.423Z,45.97
2018-02-21T04:23:55.907Z,47.78
2018-02-21T04:26:24.506Z,46.05
2018-02-21T04:28:52.779Z,46.88
2018-02-21T04:31:21.096Z,46.05
2018-02-21T04:33:48.581Z,47.00
2018-02-21T04:36:16.081Z,46.40
2018-02-21T04:38:43.595Z,47.42
2018-02-21T04:41:11.096Z,47.25
2018-02-21T04:43:38.664Z,47.72
2018-02-21T04:46:06.177Z,47.90
2018-02-21T04:48:33.956Z,48.60
2018-02-21T04:51:01.452Z,44.80
2018-02-21T04:53:29.003Z,46.20
2018-02-21T04:56:06.448Z,48.17
2018-02-21T04:58:34.818Z,49.08
2018-02-21T05:01:09.429Z,47.25
2018-02-21T05:03:36.982Z,46.28
2018-02-21T05:06:04.495Z,47.15
2018-02-21T05:08:33.083Z,49.75
2018-02-21T05:11:00.599Z,46.25
2018-02-21T05:13:28.219Z,48.35
2018-02-21T05:15:55.768Z,47.67
2018-02-21T05:18:23.313Z,47.90
2018-02-21T05:20:51.590Z,48.05
2018-02-21T05:23:19.852Z,49.75
2018-02-21T05:25:48.111Z,48.65
2018-02-21T05:28:15.607Z,47.62
2018-02-21T05:30:44.184Z,48.40
2018-02-21T05:33:12.432Z,47.85
2018-02-21T05:35:39.921Z,47.20
2018-02-21T05:38:07.772Z,48.30
2018-02-21T05:40:36.038Z,49.58
2018-02-21T05:43:03.556Z,48.22
2018-02-21T05:45:31.053Z,48.60
2018-02-21T05:47:58.609Z,47.92
2018-02-21T05:50:26.134Z,48.53
2018-02-21T05:52:53.623Z,49.60
2018-02-21T05:55:21.105Z,47.45
2018-02-21T05:57:49.389Z,49.80
2018-02-21T06:00:17.244Z,50.08
2018-02-21T06:02:45.519Z,48.40
2018-02-21T06:05:13.769Z,47.22
2018-02-21T06:07:41.548Z,51.03
2018-02-21T06:10:09.804Z,47.88
2018-02-21T06:12:37.343Z,48.85
2018-02-21T06:15:05.244Z,49.13
2018-02-21T06:17:32.768Z,47.85
2018-02-21T06:20:00.293Z,46.50
2018-02-21T06:22:28.166Z,49.88
2018-02-21T06:24:55.707Z,51.28
2018-02-21T06:27:23.532Z,49.47
2018-02-21T06:29:51.388Z,51.08
2018-02-21T06:32:18.924Z,50.78
2018-02-21T06:34:46.410Z,50.42
2018-02-21T06:37:14.220Z,49.92
2018-02-21T06:39:42.473Z,49.63
2018-02-21T06:42:09.990Z,51.08
2018-02-21T06:44:37.593Z,51.85
2018-02-21T06:47:05.855Z,49.47
2018-02-21T06:49:33.393Z,53.40
2018-02-21T06:52:01.217Z,49.50
2018-02-21T06:54:28.767Z,48.42
2018-02-21T06:56:57.050Z,50.35
2018-02-21T06:59:24.847Z,48.50
2018-02-21T07:01:52.366Z,50.35
2018-02-21T07:04:20.693Z,47.40
2018-02-21T07:06:48.222Z,48.97
2018-02-21T07:09:15.794Z,49.00
2018-02-21T07:11:43.331Z,49.50
2018-02-21T07:14:11.183Z,50.20
2018-02-21T07:16:39.459Z,51.65
2018-02-21T07:19:07.733Z,50.58
2018-02-21T07:21:36.005Z,50.53
2018-02-21T07:24:03.475Z,49.75
2018-02-21T07:26:31.005Z,50.85
2018-02-21T07:28:58.491Z,50.78
2018-02-21T07:31:26.777Z,50.35
2018-02-21T07:33:54.263Z,48.92
2018-02-21T07:36:22.102Z,47.78
2018-02-21T07:38:49.638Z,50.00
2018-02-21T07:41:18.006Z,51.92
2018-02-21T07:43:46.611Z,51.35
2018-02-21T07:46:14.874Z,48.63
2018-02-21T07:48:42.347Z,49.17
2018-02-21T07:51:10.593Z,48.00
2018-02-21T07:53:38.091Z,46.63
2018-02-21T07:56:05.564Z,47.33
2018-02-21T07:58:33.080Z,46.00
2018-02-21T08:01:01.385Z,45.67
2018-02-21T08:03:28.851Z,49.03
2018-02-21T08:05:56.694Z,49.00
2018-02-21T08:08:24.169Z,46.37
2018-02-21T08:10:51.731Z,46.28
2018-02-21T08:13:19.208Z,44.50
2018-02-21T08:15:46.688Z,45.88
2018-02-21T08:18:14.190Z,45.83
2018-02-21T08:20:41.679Z,43.40
2018-02-21T08:23:09.175Z,45.33
2018-02-21T08:25:36.668Z,46.47
2018-02-21T08:28:04.619Z,44.28
2018-02-21T08:30:32.117Z,45.72
2018-02-21T08:32:59.602Z,44.78
2018-02-21T08:35:27.121Z,44.58
2018-02-21T08:37:54.687Z,43.63
2018-02-21T08:40:22.152Z,46.88
2018-02-21T08:42:49.972Z,48.47
2018-02-21T08:45:17.478Z,44.35
2018-02-21T08:47:45.069Z,47.67
2018-02-21T08:50:12.885Z,45.45
2018-02-21T08:52:40.424Z,45.08
2018-02-21T08:55:08.057Z,46.00
2018-02-21T08:57:35.836Z,46.92
2018-02-21T09:00:04.104Z,47.47
2018-02-21T09:02:31.588Z,46.53
2018-02-21T09:04:59.074Z,46.20
2018-02-21T09:07:26.561Z,50.25
2018-02-21T09:09:54.041Z,47.35
2018-02-21T09:12:22.627Z,47.78
2018-02-21T09:14:50.960Z,46.03
2018-02-21T09:17:19.235Z,48.17
2018-02-21T09:19:46.741Z,47.38
2018-02-21T09:22:15.007Z,47.33
2018-02-21T09:24:43.269Z,47.42
2018-02-21T09:27:10.761Z,48.05
2018-02-21T09:29:38.284Z,49.13
2018-02-21T09:32:05.802Z,45.72
2018-02-21T09:34:33.373Z,48.53
2018-02-21T09:37:00.909Z,46.88
2018-02-21T09:39:28.444Z,49.72
2018-02-21T09:41:56.620Z,49.50
2018-02-21T09:44:24.326Z,46.78
2018-02-21T09:46:51.847Z,51.35
2018-02-21T09:49:19.451Z,47.10
2018-02-21T09:51:47.007Z,50.90
2018-02-21T09:54:14.514Z,47.92
2018-02-21T09:56:42.380Z,48.10
2018-02-21T09:59:10.642Z,50.33
2018-02-21T10:01:38.909Z,48.87
2018-02-21T10:04:06.447Z,49.27
2018-02-21T10:06:34.761Z,49.63
2018-02-21T10:09:02.242Z,50.97
2018-02-21T10:11:30.081Z,49.30
2018-02-21T10:13:57.651Z,48.30
2018-02-21T10:16:25.912Z,48.42
2018-02-21T10:18:53.696Z,46.30
2018-02-21T10:21:21.250Z,45.83
2018-02-21T10:23:48.776Z,49.07
2018-02-21T10:26:16.580Z,48.13
2018-02-21T10:28:44.116Z,49.40
2018-02-21T10:31:12.396Z,49.00
2018-02-21T10:33:40.986Z,49.13
2018-02-21T10:36:09.250Z,48.33
2018-02-21T10:38:36.770Z,47.87
2018-02-21T10:41:04.714Z,50.00
2018-02-21T10:43:32.234Z,46.73
2018-02-21T10:46:00.492Z,46.40
2018-02-21T10:48:28.037Z,45.57
2018-02-21T10:50:55.540Z,45.73
2018-02-21T10:53:23.037Z,46.47
2018-02-21T10:55:50.842Z,49.20
2018-02-21T10:58:19.863Z,46.30
2018-02-21T11:00:53.477Z,48.25
2018-02-21T11:03:20.980Z,46.47
2018-02-21T11:05:48.464Z,49.58
2018-02-21T11:08:16.776Z,47.55
2018-02-21T11:10:44.261Z,47.95
2018-02-21T11:13:11.911Z,46.55
2018-02-21T11:15:39.512Z,48.72
2018-02-21T11:18:07.776Z,47.45
2018-02-21T11:20:35.340Z,49.15
2018-02-21T11:23:02.963Z,47.53
2018-02-21T11:25:30.471Z,47.30
2018-02-21T11:27:58.017Z,47.13
2018-02-21T11:30:25.536Z,47.40
2018-02-21T11:32:53.014Z,45.55
2018-02-21T11:35:20.498Z,47.80
2018-02-21T11:37:48.312Z,45.92
2018-02-21T11:40:15.976Z,47.10
2018-02-21T11:42:43.477Z,46.85
2018-02-21T11:45:11.318Z,44.88
2018-02-21T11:47:38.804Z,45.47
2018-02-21T11:50:07.120Z,47.35
2018-02-21T11:52:35.053Z,45.85
2018-02-21T11:55:02.587Z,47.90
2018-02-21T11:57:30.936Z,44.55
2018-02-21T11:59:59.311Z,45.90
2018-02-21T12:02:26.806Z,45.97
2018-02-21T12:04:55.094Z,44.75
2018-02-21T12:07:23.508Z,45.22
2018-02-21T12:09:51.012Z,45.72
2018-02-21T12:12:18.568Z,43.03
2018-02-21T12:14:46.487Z,45.05
2018-02-21T12:17:14.071Z,46.55
2018-02-21T12:19:41.612Z,46.83
2018-02-21T12:22:09.427Z,44.17
2018-02-21T12:24:36.956Z,47.05
2018-02-21T12:27:04.552Z,47.65
2018-02-21T12:29:32.458Z,47.10
2018-02-21T12:32:03.339Z,45.80
2018-02-21T12:34:30.850Z,44.67
2018-02-21T12:36:58.698Z,44.80
2018-02-21T12:39:32.615Z,43.08
2018-02-21T12:42:00.863Z,41.88
2018-02-21T12:44:28.370Z,45.95
2018-02-21T12:46:55.849Z,45.30
2018-02-21T12:49:23.393Z,46.65
2018-02-21T12:51:50.872Z,44.63
2018-02-21T12:54:18.353Z,45.33
2018-02-21T12:56:46.292Z,46.08
2018-02-21T12:59:13.804Z,44.60
2018-02-21T13:01:42.041Z,44.72
2018-02-21T13:04:09.568Z,44.72
2018-02-21T13:06:37.060Z,44.80
2018-02-21T13:09:04.561Z,45.10
2018-02-21T13:11:32.420Z,43.80
2018-02-21T13:14:00.721Z,45.60
2018-02-21T13:16:28.945Z,45.50
2018-02-21T13:18:56.477Z,47.72
2018-02-21T13:21:23.953Z,46.30
2018-02-21T13:23:51.493Z,43.78
2018-02-21T13:26:19.070Z,46.17
2018-02-21T13:28:46.575Z,44.22
2018-02-21T13:31:14.084Z,47.83
2018-02-21T13:33:41.900Z,46.13
2018-02-21T13:36:09.383Z,44.53
2018-02-21T13:38:36.899Z,44.92
2018-02-21T13:41:04.731Z,43.33
2018-02-21T13:43:32.227Z,42.47
2018-02-21T13:45:59.769Z,43.63
2018-02-21T13:48:28.577Z,41.80
2018-02-21T13:50:56.113Z,41.83
2018-02-21T13:53:23.625Z,41.55
2018-02-21T13:55:51.447Z,43.55
2018-02-21T13:58:18.963Z,43.97
2018-02-21T14:00:46.454Z,44.13
2018-02-21T14:03:14.331Z,44.70
2018-02-21T14:05:41.828Z,45.28
2018-02-21T14:08:09.342Z,44.75
2018-02-21T14:10:38.238Z,42.72
2018-02-21T14:13:06.481Z,44.20
2018-02-21T14:15:34.008Z,42.67
2018-02-21T14:18:01.524Z,43.87
2018-02-21T14:20:29.809Z,43.87
2018-02-21T14:22:58.281Z,42.03
2018-02-21T14:25:26.194Z,42.10
2018-02-21T14:27:53.688Z,39.03
2018-02-21T14:30:21.197Z,41.60
2018-02-21T14:32:48.719Z,40.70
2018-02-21T14:35:16.974Z,40.55
2018-02-21T14:37:44.458Z,40.90
2018-02-21T14:40:13.497Z,40.35
2018-02-21T14:42:41.009Z,42.55
2018-02-21T14:45:08.474Z,36.88
2018-02-21T14:47:36.531Z,41.63
2018-02-21T14:50:04.813Z,37.97
2018-02-21T14:52:33.088Z,38.50
2018-02-21T14:55:01.589Z,39.42
2018-02-21T14:57:29.077Z,39.08
2018-02-21T14:59:56.555Z,40.53
2018-02-21T15:02:24.048Z,38.58
2018-02-21T15:04:52.305Z,30.75
2018-02-21T15:07:19.788Z,30.62
2018-02-21T15:09:47.684Z,33.85
2018-02-21T15:12:15.168Z,35.78
2018-02-21T15:14:42.679Z,36.38
2018-02-21T15:17:10.542Z,35.10
2018-02-21T15:19:38.032Z,35.42
2018-02-21T15:22:06.295Z,34.00
2018-02-21T15:24:33.804Z,35.75
2018-02-21T15:27:02.061Z,30.75
2018-02-21T15:29:29.567Z,31.70
2018-02-21T15:31:58.052Z,31.27
2018-02-21T15:34:25.576Z,31.08
2018-02-21T15:36:53.086Z,28.65
2018-02-21T15:39:20.588Z,29.85
2018-02-21T15:41:48.068Z,30.55
2018-02-21T15:44:16.322Z,32.22
2018-02-21T15:46:43.854Z,33.40
2018-02-21T15:49:11.402Z,32.67
2018-02-21T15:51:38.982Z,32.63
2018-02-21T15:54:06.887Z,31.70
2018-02-21T15:56:34.367Z,33.13
2018-02-21T15:59:01.861Z,31.35
2018-02-21T16:01:29.659Z,31.20
2018-02-21T16:03:57.920Z,32.38
2018-02-21T16:06:25.408Z,34.08
2018-02-21T16:08:52.953Z,34.05
2018-02-21T16:11:20.477Z,32.28
2018-02-21T16:13:48.116Z,31.65
2018-02-21T16:16:15.648Z,33.00
2018-02-21T16:18:43.250Z,30.83
2018-02-21T16:21:10.764Z,32.63
2018-02-21T16:23:38.565Z,33.15
2018-02-21T16:26:06.061Z,31.92
2018-02-21T16:28:34.344Z,31.35
2018-02-21T16:31:02.605Z,32.35
2018-02-21T16:33:30.095Z,31.55
2018-02-21T16:35:57.580Z,32.35
2018-02-21T16:38:25.916Z,30.85
2018-02-21T16:40:54.179Z,31.25
2018-02-21T16:43:22.506Z,34.75
2018-02-21T16:45:50.020Z,30.85
2018-02-21T16:48:18.268Z,32.55
2018-02-21T16:50:45.791Z,33.55
2018-02-21T16:53:13.267Z,35.20
2018-02-21T16:55:40.876Z,33.13
2018-02-21T16:58:09.191Z,35.95
2018-02-21T17:00:37.040Z,35.55
2018-02-21T17:03:04.568Z,33.45
2018-02-21T17:05:32.893Z,34.78
2018-02-21T17:08:00.778Z,36.03
2018-02-21T17:10:28.278Z,34.80
2018-02-21T17:12:55.783Z,33.67
2018-02-21T17:15:23.540Z,35.22
2018-02-21T17:17:51.058Z,35.40
2018-02-21T17:20:19.334Z,35.47
2018-02-21T17:22:46.811Z,33.22
2018-02-21T17:25:14.292Z,36.83
2018-02-21T17:27:41.796Z,34.03
2018-02-21T17:30:09.331Z,35.30
2018-02-21T17:32:36.894Z,36.10
2018-02-21T17:35:04.348Z,32.78
2018-02-21T17:37:32.100Z,35.28
2018-02-21T17:39:59.573Z,34.42
2018-02-21T17:42:27.181Z,35.38
2018-02-21T17:44:55.121Z,36.10
2018-02-21T17:47:23.374Z,37.75
2018-02-21T17:49:50.885Z,38.88
2018-02-21T17:52:18.390Z,38.13
2018-02-21T17:54:45.877Z,35.75
2018-02-21T17:57:14.142Z,37.38
2018-02-21T17:59:42.765Z,36.67
2018-02-21T18:02:10.268Z,34.83
2018-02-21T18:04:37.776Z,36.17
2018-02-21T18:07:05.297Z,35.22
2018-02-21T18:09:32.775Z,35.30
2018-02-21T18:12:01.072Z,34.35
2018-02-21T18:14:28.826Z,36.30
2018-02-21T18:16:56.324Z,34.05
2018-02-21T18:19:23.810Z,36.97
2018-02-21T18:21:52.096Z,34.60
2018-02-21T18:24:20.357Z,34.55
2018-02-21T18:26:48.636Z,35.03
2018-02-21T18:29:16.164Z,36.97
2018-02-21T18:31:43.668Z,37.85
2018-02-21T18:34:11.941Z,36.97
2018-02-21T18:36:40.481Z,36.97
2018-02-21T18:39:08.027Z,36.38
2018-02-21T18:41:35.535Z,36.63
2018-02-21T18:44:04.070Z,36.70
2018-02-21T18:46:31.582Z,38.95
2018-02-21T18:48:59.651Z,35.92
2018-02-21T18:51:28.236Z,38.50
2018-02-21T18:53:56.570Z,38.72
2018-02-21T18:56:24.066Z,38.70
2018-02-21T18:58:52.366Z,38.92
2018-02-21T19:01:19.862Z,35.00
2018-02-21T19:03:47.331Z,37.90
2018-02-21T19:06:15.007Z,38.05
2018-02-21T19:08:42.543Z,35.45
2018-02-21T19:11:10.031Z,38.38
2018-02-21T19:13:37.558Z,37.15
2018-02-21T19:16:05.094Z,35.47
2018-02-21T19:18:32.593Z,35.67
2018-02-21T19:21:00.237Z,35.38
2018-02-21T19:23:27.720Z,39.10
2018-02-21T19:25:55.187Z,38.25
2018-02-21T19:28:23.451Z,38.88
2018-02-21T19:30:50.928Z,39.03
2018-02-21T19:33:19.184Z,38.42
2018-02-21T19:35:46.686Z,39.95
2018-02-21T19:38:14.171Z,40.17
2018-02-21T19:40:41.664Z,41.10
2018-02-21T19:43:09.184Z,38.13
2018-02-21T19:45:36.691Z,36.63
2018-02-21T19:48:04.963Z,37.17
2018-02-21T19:50:32.487Z,37.15
2018-02-21T19:53:00.014Z,33.35
2018-02-21T19:55:27.518Z,34.45
2018-02-21T19:57:55.020Z,34.83
2018-02-21T20:00:22.505Z,37.45
2018-02-21T20:02:50.023Z,35.45
2018-02-21T20:05:18.281Z,35.13
2018-02-21T20:07:45.767Z,36.63
2018-02-21T20:10:13.327Z,35.35
2018-02-21T20:12:40.880Z,35.33
2018-02-21T20:15:08.364Z,38.22
2018-02-21T20:17:35.836Z,36.58
2018-02-21T20:20:03.371Z,37.15
2018-02-21T20:22:31.675Z,35.80
2018-02-21T20:24:59.212Z,37.80
2018-02-21T20:27:26.715Z,34.88
2018-02-21T20:29:54.224Z,45.75
2018-02-21T20:32:21.779Z,37.55
2018-02-21T20:34:49.601Z,39.70
2018-02-21T20:37:17.844Z,40.75
2018-02-21T20:39:45.332Z,36.75
2018-02-21T20:42:13.228Z,40.12
2018-02-21T20:44:40.740Z,37.58
2018-02-21T20:47:08.220Z,36.10
2018-02-21T20:49:36.734Z,35.35
2018-02-21T20:52:04.216Z,34.75
2018-02-21T20:54:31.771Z,35.75
2018-02-21T20:56:59.277Z,34.75
2018-02-21T20:59:26.777Z,34.13
2018-02-21T21:01:54.284Z,34.92
2018-02-21T21:04:21.802Z,31.33
2018-02-21T21:06:49.319Z,34.80
2018-02-21T21:09:17.556Z,31.55
2018-02-21T21:11:45.451Z,34.42
2018-02-21T21:14:13.700Z,32.13
2018-02-21T21:16:41.191Z,34.67
2018-02-21T21:19:09.051Z,33.42
2018-02-21T21:21:37.322Z,32.80
2018-02-21T21:24:06.396Z,34.45
2018-02-21T21:26:34.211Z,32.30
2018-02-21T21:29:01.905Z,32.78
2018-02-21T21:31:29.404Z,33.97
2018-02-21T21:33:58.133Z,33.33
2018-02-21T21:36:25.615Z,32.00
2018-02-21T21:38:53.099Z,32.92
2018-02-21T21:41:20.984Z,32.47
2018-02-21T21:43:49.390Z,34.08
2018-02-21T21:46:16.893Z,35.85
2018-02-21T21:48:44.684Z,38.30
2018-02-21T21:51:12.196Z,37.30
2018-02-21T21:53:39.691Z,37.72
2018-02-21T21:56:07.576Z,31.45
2018-02-21T21:58:35.050Z,36.80
2018-02-21T22:01:02.548Z,36.72
2018-02-21T22:03:30.332Z,38.40
2018-02-21T22:05:58.603Z,37.08
2018-02-21T22:08:26.173Z,35.95
2018-02-21T22:10:54.768Z,35.47
2018-02-21T22:13:23.038Z,36.03
2018-02-21T22:15:51.294Z,33.40
2018-02-21T22:18:19.214Z,32.97
2018-02-21T22:20:46.693Z,32.03
2018-02-21T22:23:14.183Z,32.42
2018-02-21T22:25:42.729Z,35.78
2018-02-21T22:28:10.209Z,33.70
2018-02-21T22:30:37.690Z,32.78
2018-02-21T22:33:06.267Z,33.10
2018-02-21T22:35:34.521Z,33.35
2018-02-21T22:38:02.038Z,31.67
2018-02-21T22:40:29.864Z,33.22
2018-02-21T22:42:58.131Z,30.80
2018-02-21T22:45:25.638Z,31.05
2018-02-21T22:47:53.127Z,33.58
2018-02-21T22:50:20.596Z,32.67
2018-02-21T22:52:48.067Z,33.95
2018-02-21T22:55:16.323Z,33.60
2018-02-21T22:57:43.812Z,34.78
2018-02-21T23:00:12.046Z,32.42
2018-02-21T23:02:39.600Z,30.62
2018-02-21T23:05:07.072Z,31.73
2018-02-21T23:07:34.574Z,32.42
2018-02-21T23:10:02.106Z,31.25
2018-02-21T23:12:29.583Z,33.58
2018-02-21T23:14:57.100Z,34.00
2018-02-21T23:17:25.035Z,33.83
2018-02-21T23:19:52.537Z,32.33
2018-02-21T23:22:20.081Z,32.58
2018-02-21T23:24:47.873Z,33.63
2018-02-21T23:27:16.123Z,32.42
2018-02-21T23:29:43.627Z,31.73
2018-02-21T23:32:11.384Z,33.10
2018-02-21T23:34:38.867Z,33.20
2018-02-21T23:37:06.379Z,33.63
2018-02-21T23:39:34.686Z,30.98
2018-02-21T23:42:02.184Z,31.73
2018-02-21T23:44:29.679Z,31.55
2018-02-21T23:46:57.173Z,31.98
2018-02-21T23:49:24.718Z,32.65
2018-02-21T23:51:52.201Z,33.95
2018-02-21T23:54:20.123Z,34.05
2018-02-21T23:56:48.415Z,32.63
2018-02-21T23:59:15.923Z,32.22
